sensor_id;sensor_type;location;lat;lon;timestamp;P1;durP1;ratioP1;P2;durP2;ratioP2
75645;SDS011;64237;52.438;13.240;2022-10-16T00:01:30;3.75;;;1.58;;
75645;SDS011;64237;52.438;13.240;2022-10-16T00:03:56;2.28;;;1.38;;
75645;SDS011;64237;52.438;13.240;2022-10-16T00:06:22;2.63;;;1.45;;
75645;SDS011;64237;52.438;13.240;2022-10-16T00:08:49;3.35;;;1.63;;
75645;SDS011;64237;52.438;13.240;2022-10-16T00:11:16;2.60;;;1.50;;
75645;SDS011;64237;52.438;13.240;2022-10-16T00:13:44;3.58;;;1.60;;
75645;SDS011;64237;52.438;13.240;2022-10-16T00:16:11;4.75;;;1.75;;
75645;SDS011;64237;52.438;13.240;2022-10-16T00:18:37;3.30;;;1.52;;
75645;SDS011;64237;52.438;13.240;2022-10-16T00:21:13;2.92;;;1.65;;
75645;SDS011;64237;52.438;13.240;2022-10-16T00:23:40;4.25;;;1.60;;
75645;SDS011;64237;52.438;13.240;2022-10-16T00:26:07;3.35;;;1.60;;
75645;SDS011;64237;52.438;13.240;2022-10-16T00:28:36;3.15;;;1.42;;
75645;SDS011;64237;52.438;13.240;2022-10-16T00:31:09;3.80;;;1.58;;
75645;SDS011;64237;52.438;13.240;2022-10-16T00:33:36;3.72;;;1.55;;
75645;SDS011;64237;52.438;13.240;2022-10-16T00:36:03;3.92;;;1.63;;
75645;SDS011;64237;52.438;13.240;2022-10-16T00:38:29;5.18;;;1.63;;
75645;SDS011;64237;52.438;13.240;2022-10-16T00:40:55;2.42;;;1.40;;
75645;SDS011;64237;52.438;13.240;2022-10-16T00:46:01;3.08;;;1.50;;
75645;SDS011;64237;52.438;13.240;2022-10-16T00:48:29;1.92;;;1.30;;
75645;SDS011;64237;52.438;13.240;2022-10-16T00:50:55;3.42;;;1.40;;
75645;SDS011;64237;52.438;13.240;2022-10-16T00:53:23;2.95;;;1.50;;
75645;SDS011;64237;52.438;13.240;2022-10-16T00:55:50;2.78;;;1.50;;
75645;SDS011;64237;52.438;13.240;2022-10-16T00:58:16;2.38;;;1.35;;
75645;SDS011;64237;52.438;13.240;2022-10-16T01:00:41;4.15;;;1.52;;
75645;SDS011;64237;52.438;13.240;2022-10-16T01:03:26;2.95;;;1.40;;
75645;SDS011;64237;52.438;13.240;2022-10-16T01:05:57;2.25;;;1.40;;
75645;SDS011;64237;52.438;13.240;2022-10-16T01:11:28;3.28;;;1.27;;
75645;SDS011;64237;52.438;13.240;2022-10-16T01:14:11;5.63;;;1.45;;
75645;SDS011;64237;52.438;13.240;2022-10-16T01:22:24;3.17;;;1.42;;
75645;SDS011;64237;52.438;13.240;2022-10-16T01:24:56;1.92;;;1.23;;
75645;SDS011;64237;52.438;13.240;2022-10-16T01:27:27;2.83;;;1.40;;
75645;SDS011;64237;52.438;13.240;2022-10-16T01:30:00;2.58;;;1.40;;
75645;SDS011;64237;52.438;13.240;2022-10-16T01:32:36;4.30;;;1.55;;
75645;SDS011;64237;52.438;13.240;2022-10-16T01:37:44;4.78;;;1.70;;
75645;SDS011;64237;52.438;13.240;2022-10-16T01:40:14;2.80;;;1.38;;
75645;SDS011;64237;52.438;13.240;2022-10-16T01:42:44;4.18;;;1.65;;
75645;SDS011;64237;52.438;13.240;2022-10-16T01:45:13;2.88;;;1.40;;
75645;SDS011;64237;52.438;13.240;2022-10-16T01:47:43;2.92;;;1.50;;
75645;SDS011;64237;52.438;13.240;2022-10-16T01:50:10;2.33;;;1.10;;
75645;SDS011;64237;52.438;13.240;2022-10-16T01:52:40;4.10;;;1.50;;
75645;SDS011;64237;52.438;13.240;2022-10-16T01:57:36;3.47;;;1.52;;
75645;SDS011;64237;52.438;13.240;2022-10-16T02:00:07;4.88;;;1.60;;
75645;SDS011;64237;52.438;13.240;2022-10-16T02:02:35;2.65;;;1.50;;
75645;SDS011;64237;52.438;13.240;2022-10-16T02:07:38;2.33;;;1.33;;
75645;SDS011;64237;52.438;13.240;2022-10-16T02:10:03;2.00;;;1.30;;
75645;SDS011;64237;52.438;13.240;2022-10-16T02:12:33;2.30;;;1.50;;
75645;SDS011;64237;52.438;13.240;2022-10-16T02:17:30;2.17;;;1.33;;
75645;SDS011;64237;52.438;13.240;2022-10-16T02:19:55;2.20;;;1.33;;
75645;SDS011;64237;52.438;13.240;2022-10-16T02:25:11;2.75;;;1.20;;
75645;SDS011;64237;52.438;13.240;2022-10-16T02:30:27;1.75;;;1.20;;
75645;SDS011;64237;52.438;13.240;2022-10-16T02:32:56;2.33;;;1.20;;
75645;SDS011;64237;52.438;13.240;2022-10-16T02:35:23;2.90;;;1.42;;
75645;SDS011;64237;52.438;13.240;2022-10-16T02:37:50;3.35;;;1.50;;
75645;SDS011;64237;52.438;13.240;2022-10-16T02:40:17;2.20;;;1.27;;
75645;SDS011;64237;52.438;13.240;2022-10-16T02:42:43;2.10;;;1.20;;
75645;SDS011;64237;52.438;13.240;2022-10-16T02:45:09;3.00;;;1.35;;
75645;SDS011;64237;52.438;13.240;2022-10-16T02:47:36;2.38;;;1.50;;
75645;SDS011;64237;52.438;13.240;2022-10-16T02:50:02;3.28;;;1.40;;
75645;SDS011;64237;52.438;13.240;2022-10-16T02:52:28;2.90;;;1.33;;
75645;SDS011;64237;52.438;13.240;2022-10-16T02:54:54;1.80;;;1.10;;
75645;SDS011;64237;52.438;13.240;2022-10-16T02:57:19;2.95;;;1.30;;
75645;SDS011;64237;52.438;13.240;2022-10-16T02:59:44;1.90;;;1.20;;
75645;SDS011;64237;52.438;13.240;2022-10-16T03:02:10;2.75;;;1.48;;
75645;SDS011;64237;52.438;13.240;2022-10-16T03:04:36;3.38;;;1.40;;
75645;SDS011;64237;52.438;13.240;2022-10-16T03:07:02;1.95;;;1.38;;
75645;SDS011;64237;52.438;13.240;2022-10-16T03:09:27;2.10;;;1.48;;
75645;SDS011;64237;52.438;13.240;2022-10-16T03:11:53;2.22;;;1.20;;
75645;SDS011;64237;52.438;13.240;2022-10-16T03:14:18;2.30;;;1.30;;
75645;SDS011;64237;52.438;13.240;2022-10-16T03:16:44;3.08;;;1.42;;
75645;SDS011;64237;52.438;13.240;2022-10-16T03:19:09;2.47;;;1.40;;
75645;SDS011;64237;52.438;13.240;2022-10-16T03:21:34;3.38;;;1.25;;
75645;SDS011;64237;52.438;13.240;2022-10-16T03:24:00;2.55;;;1.30;;
75645;SDS011;64237;52.438;13.240;2022-10-16T03:26:25;1.92;;;1.20;;
75645;SDS011;64237;52.438;13.240;2022-10-16T03:28:51;2.13;;;1.35;;
75645;SDS011;64237;52.438;13.240;2022-10-16T03:31:16;3.63;;;1.40;;
75645;SDS011;64237;52.438;13.240;2022-10-16T03:33:41;2.60;;;1.20;;
75645;SDS011;64237;52.438;13.240;2022-10-16T03:36:07;2.42;;;1.30;;
75645;SDS011;64237;52.438;13.240;2022-10-16T03:38:32;2.40;;;1.40;;
75645;SDS011;64237;52.438;13.240;2022-10-16T03:40:57;2.67;;;1.40;;
75645;SDS011;64237;52.438;13.240;2022-10-16T03:43:23;3.10;;;1.50;;
75645;SDS011;64237;52.438;13.240;2022-10-16T03:45:49;2.40;;;1.50;;
75645;SDS011;64237;52.438;13.240;2022-10-16T03:48:16;4.22;;;1.45;;
75645;SDS011;64237;52.438;13.240;2022-10-16T03:50:42;2.08;;;1.30;;
75645;SDS011;64237;52.438;13.240;2022-10-16T03:53:07;2.78;;;1.45;;
75645;SDS011;64237;52.438;13.240;2022-10-16T03:55:32;2.25;;;1.40;;
75645;SDS011;64237;52.438;13.240;2022-10-16T03:57:58;2.00;;;1.40;;
75645;SDS011;64237;52.438;13.240;2022-10-16T04:00:23;2.80;;;1.30;;
75645;SDS011;64237;52.438;13.240;2022-10-16T04:02:48;2.70;;;1.40;;
75645;SDS011;64237;52.438;13.240;2022-10-16T04:05:14;2.87;;;1.40;;
75645;SDS011;64237;52.438;13.240;2022-10-16T04:07:39;2.25;;;1.30;;
75645;SDS011;64237;52.438;13.240;2022-10-16T04:10:05;2.45;;;1.42;;
75645;SDS011;64237;52.438;13.240;2022-10-16T04:12:30;2.70;;;1.30;;
75645;SDS011;64237;52.438;13.240;2022-10-16T04:14:56;3.03;;;1.42;;
75645;SDS011;64237;52.438;13.240;2022-10-16T04:17:21;3.03;;;1.50;;
75645;SDS011;64237;52.438;13.240;2022-10-16T04:19:46;2.10;;;1.40;;
75645;SDS011;64237;52.438;13.240;2022-10-16T04:22:12;2.08;;;1.30;;
75645;SDS011;64237;52.438;13.240;2022-10-16T04:24:38;2.42;;;1.40;;
75645;SDS011;64237;52.438;13.240;2022-10-16T04:27:03;2.78;;;1.70;;
75645;SDS011;64237;52.438;13.240;2022-10-16T04:29:28;3.53;;;1.50;;
75645;SDS011;64237;52.438;13.240;2022-10-16T04:31:54;2.83;;;1.40;;
75645;SDS011;64237;52.438;13.240;2022-10-16T04:34:19;2.10;;;1.40;;
75645;SDS011;64237;52.438;13.240;2022-10-16T04:36:46;3.78;;;1.35;;
75645;SDS011;64237;52.438;13.240;2022-10-16T04:41:39;2.17;;;1.37;;
75645;SDS011;64237;52.438;13.240;2022-10-16T04:44:04;2.67;;;1.27;;
75645;SDS011;64237;52.438;13.240;2022-10-16T04:46:29;1.90;;;1.30;;
75645;SDS011;64237;52.438;13.240;2022-10-16T04:48:55;2.55;;;1.38;;
75645;SDS011;64237;52.438;13.240;2022-10-16T04:51:20;3.13;;;1.37;;
75645;SDS011;64237;52.438;13.240;2022-10-16T04:53:45;1.88;;;1.40;;
75645;SDS011;64237;52.438;13.240;2022-10-16T04:56:11;2.97;;;1.50;;
75645;SDS011;64237;52.438;13.240;2022-10-16T04:58:36;3.05;;;1.40;;
75645;SDS011;64237;52.438;13.240;2022-10-16T05:01:01;2.67;;;1.47;;
75645;SDS011;64237;52.438;13.240;2022-10-16T05:03:27;2.97;;;1.40;;
75645;SDS011;64237;52.438;13.240;2022-10-16T05:05:52;2.67;;;1.30;;
75645;SDS011;64237;52.438;13.240;2022-10-16T05:08:17;2.42;;;1.30;;
75645;SDS011;64237;52.438;13.240;2022-10-16T05:10:43;3.38;;;1.70;;
75645;SDS011;64237;52.438;13.240;2022-10-16T05:13:09;2.92;;;1.33;;
75645;SDS011;64237;52.438;13.240;2022-10-16T05:15:35;2.58;;;1.38;;
75645;SDS011;64237;52.438;13.240;2022-10-16T05:18:01;2.72;;;1.50;;
75645;SDS011;64237;52.438;13.240;2022-10-16T05:20:26;2.17;;;1.40;;
75645;SDS011;64237;52.438;13.240;2022-10-16T05:22:52;2.25;;;1.30;;
75645;SDS011;64237;52.438;13.240;2022-10-16T05:25:17;2.80;;;1.30;;
75645;SDS011;64237;52.438;13.240;2022-10-16T05:27:43;2.78;;;1.48;;
75645;SDS011;64237;52.438;13.240;2022-10-16T05:30:11;2.63;;;1.55;;
75645;SDS011;64237;52.438;13.240;2022-10-16T05:32:37;2.87;;;1.50;;
75645;SDS011;64237;52.438;13.240;2022-10-16T05:35:02;3.78;;;1.70;;
75645;SDS011;64237;52.438;13.240;2022-10-16T05:37:30;3.88;;;1.63;;
75645;SDS011;64237;52.438;13.240;2022-10-16T05:39:57;2.95;;;1.65;;
75645;SDS011;64237;52.438;13.240;2022-10-16T05:42:22;3.35;;;1.67;;
75645;SDS011;64237;52.438;13.240;2022-10-16T05:44:47;4.00;;;1.50;;
75645;SDS011;64237;52.438;13.240;2022-10-16T05:47:13;3.30;;;1.65;;
75645;SDS011;64237;52.438;13.240;2022-10-16T05:49:39;3.15;;;1.50;;
75645;SDS011;64237;52.438;13.240;2022-10-16T05:52:04;3.72;;;1.48;;
75645;SDS011;64237;52.438;13.240;2022-10-16T05:54:30;6.40;;;1.42;;
75645;SDS011;64237;52.438;13.240;2022-10-16T05:56:55;3.97;;;1.33;;
75645;SDS011;64237;52.438;13.240;2022-10-16T05:59:20;1.90;;;1.30;;
75645;SDS011;64237;52.438;13.240;2022-10-16T06:01:46;2.22;;;1.42;;
75645;SDS011;64237;52.438;13.240;2022-10-16T06:04:11;3.75;;;1.30;;
75645;SDS011;64237;52.438;13.240;2022-10-16T06:06:37;1.50;;;1.20;;
75645;SDS011;64237;52.438;13.240;2022-10-16T06:09:02;2.38;;;1.35;;
75645;SDS011;64237;52.438;13.240;2022-10-16T06:11:30;2.88;;;1.50;;
75645;SDS011;64237;52.438;13.240;2022-10-16T06:13:58;3.60;;;1.52;;
75645;SDS011;64237;52.438;13.240;2022-10-16T06:16:27;2.65;;;1.40;;
75645;SDS011;64237;52.438;13.240;2022-10-16T06:18:52;2.17;;;1.48;;
75645;SDS011;64237;52.438;13.240;2022-10-16T06:21:20;3.55;;;1.63;;
75645;SDS011;64237;52.438;13.240;2022-10-16T06:23:51;2.63;;;1.50;;
75645;SDS011;64237;52.438;13.240;2022-10-16T06:26:18;3.47;;;1.60;;
75645;SDS011;64237;52.438;13.240;2022-10-16T06:28:45;3.17;;;1.40;;
75645;SDS011;64237;52.438;13.240;2022-10-16T06:31:12;3.60;;;1.83;;
75645;SDS011;64237;52.438;13.240;2022-10-16T06:33:38;3.85;;;1.70;;
75645;SDS011;64237;52.438;13.240;2022-10-16T06:36:05;4.20;;;2.10;;
75645;SDS011;64237;52.438;13.240;2022-10-16T06:38:33;4.53;;;2.03;;
75645;SDS011;64237;52.438;13.240;2022-10-16T06:40:59;3.33;;;1.77;;
75645;SDS011;64237;52.438;13.240;2022-10-16T06:43:25;3.15;;;1.60;;
75645;SDS011;64237;52.438;13.240;2022-10-16T06:45:54;3.03;;;1.63;;
75645;SDS011;64237;52.438;13.240;2022-10-16T06:48:21;2.63;;;1.55;;
75645;SDS011;64237;52.438;13.240;2022-10-16T06:51:04;2.42;;;1.58;;
75645;SDS011;64237;52.438;13.240;2022-10-16T06:53:39;4.15;;;1.92;;
75645;SDS011;64237;52.438;13.240;2022-10-16T06:56:09;3.47;;;1.70;;
75645;SDS011;64237;52.438;13.240;2022-10-16T06:58:39;3.13;;;1.70;;
75645;SDS011;64237;52.438;13.240;2022-10-16T07:01:06;3.97;;;1.85;;
75645;SDS011;64237;52.438;13.240;2022-10-16T07:03:32;2.88;;;1.63;;
75645;SDS011;64237;52.438;13.240;2022-10-16T07:06:01;3.22;;;1.60;;
75645;SDS011;64237;52.438;13.240;2022-10-16T07:08:30;5.70;;;1.52;;
75645;SDS011;64237;52.438;13.240;2022-10-16T07:10:59;2.63;;;1.42;;
75645;SDS011;64237;52.438;13.240;2022-10-16T07:13:28;3.38;;;1.52;;
75645;SDS011;64237;52.438;13.240;2022-10-16T07:15:54;2.33;;;1.50;;
75645;SDS011;64237;52.438;13.240;2022-10-16T07:18:19;3.28;;;1.70;;
75645;SDS011;64237;52.438;13.240;2022-10-16T07:20:45;4.05;;;1.50;;
75645;SDS011;64237;52.438;13.240;2022-10-16T07:23:10;3.47;;;2.00;;
75645;SDS011;64237;52.438;13.240;2022-10-16T07:25:36;2.90;;;1.52;;
75645;SDS011;64237;52.438;13.240;2022-10-16T07:28:01;3.45;;;1.85;;
75645;SDS011;64237;52.438;13.240;2022-10-16T07:30:26;3.20;;;1.70;;
75645;SDS011;64237;52.438;13.240;2022-10-16T07:32:52;3.10;;;1.60;;
75645;SDS011;64237;52.438;13.240;2022-10-16T07:35:17;3.50;;;1.77;;
75645;SDS011;64237;52.438;13.240;2022-10-16T07:37:46;3.95;;;1.63;;
75645;SDS011;64237;52.438;13.240;2022-10-16T07:40:11;2.70;;;1.45;;
75645;SDS011;64237;52.438;13.240;2022-10-16T07:42:37;6.07;;;1.45;;
75645;SDS011;64237;52.438;13.240;2022-10-16T07:45:02;2.35;;;1.42;;
75645;SDS011;64237;52.438;13.240;2022-10-16T07:47:28;6.25;;;1.63;;
75645;SDS011;64237;52.438;13.240;2022-10-16T07:49:53;2.92;;;1.35;;
75645;SDS011;64237;52.438;13.240;2022-10-16T07:52:18;3.70;;;1.42;;
75645;SDS011;64237;52.438;13.240;2022-10-16T07:54:45;2.78;;;1.50;;
75645;SDS011;64237;52.438;13.240;2022-10-16T07:57:10;2.60;;;1.25;;
75645;SDS011;64237;52.438;13.240;2022-10-16T07:59:36;2.42;;;1.38;;
75645;SDS011;64237;52.438;13.240;2022-10-16T08:02:01;1.60;;;1.00;;
75645;SDS011;64237;52.438;13.240;2022-10-16T08:04:27;1.65;;;1.13;;
75645;SDS011;64237;52.438;13.240;2022-10-16T08:06:52;4.10;;;1.30;;
75645;SDS011;64237;52.438;13.240;2022-10-16T08:09:20;1.88;;;1.05;;
75645;SDS011;64237;52.438;13.240;2022-10-16T08:11:46;1.10;;;0.95;;
75645;SDS011;64237;52.438;13.240;2022-10-16T08:14:11;2.38;;;1.30;;
75645;SDS011;64237;52.438;13.240;2022-10-16T08:16:36;2.70;;;1.25;;
75645;SDS011;64237;52.438;13.240;2022-10-16T08:19:02;2.58;;;1.30;;
75645;SDS011;64237;52.438;13.240;2022-10-16T08:21:27;2.63;;;1.20;;
75645;SDS011;64237;52.438;13.240;2022-10-16T08:23:53;1.83;;;1.10;;
75645;SDS011;64237;52.438;13.240;2022-10-16T08:26:20;3.13;;;1.30;;
75645;SDS011;64237;52.438;13.240;2022-10-16T08:28:45;1.48;;;1.10;;
75645;SDS011;64237;52.438;13.240;2022-10-16T08:31:14;1.90;;;1.20;;
75645;SDS011;64237;52.438;13.240;2022-10-16T08:33:41;1.98;;;1.30;;
75645;SDS011;64237;52.438;13.240;2022-10-16T08:36:10;1.90;;;1.05;;
75645;SDS011;64237;52.438;13.240;2022-10-16T08:38:36;2.88;;;1.20;;
75645;SDS011;64237;52.438;13.240;2022-10-16T08:49:32;2.53;;;1.20;;
75645;SDS011;64237;52.438;13.240;2022-10-16T08:51:58;3.67;;;1.40;;
75645;SDS011;64237;52.438;13.240;2022-10-16T08:54:32;1.65;;;0.90;;
75645;SDS011;64237;52.438;13.240;2022-10-16T08:57:14;2.58;;;1.10;;
75645;SDS011;64237;52.438;13.240;2022-10-16T08:59:42;2.30;;;1.08;;
75645;SDS011;64237;52.438;13.240;2022-10-16T09:04:57;1.30;;;1.00;;
75645;SDS011;64237;52.438;13.240;2022-10-16T09:13:02;1.00;;;0.75;;
75645;SDS011;64237;52.438;13.240;2022-10-16T09:15:36;1.67;;;0.88;;
75645;SDS011;64237;52.438;13.240;2022-10-16T09:18:19;0.95;;;0.90;;
75645;SDS011;64237;52.438;13.240;2022-10-16T09:23:26;1.00;;;0.85;;
75645;SDS011;64237;52.438;13.240;2022-10-16T09:25:53;1.50;;;0.90;;
75645;SDS011;64237;52.438;13.240;2022-10-16T09:28:20;1.17;;;0.88;;
75645;SDS011;64237;52.438;13.240;2022-10-16T09:30:46;1.60;;;0.90;;
75645;SDS011;64237;52.438;13.240;2022-10-16T09:33:15;1.80;;;0.90;;
75645;SDS011;64237;52.438;13.240;2022-10-16T09:35:44;2.45;;;0.90;;
75645;SDS011;64237;52.438;13.240;2022-10-16T09:38:33;1.98;;;1.00;;
75645;SDS011;64237;52.438;13.240;2022-10-16T09:41:02;1.92;;;0.82;;
75645;SDS011;64237;52.438;13.240;2022-10-16T09:43:45;1.08;;;0.88;;
75645;SDS011;64237;52.438;13.240;2022-10-16T09:46:33;1.48;;;0.80;;
75645;SDS011;64237;52.438;13.240;2022-10-16T09:49:01;1.10;;;0.90;;
75645;SDS011;64237;52.438;13.240;2022-10-16T09:53:59;1.40;;;0.80;;
75645;SDS011;64237;52.438;13.240;2022-10-16T09:56:46;1.95;;;0.90;;
75645;SDS011;64237;52.438;13.240;2022-10-16T09:59:19;0.70;;;0.70;;
75645;SDS011;64237;52.438;13.240;2022-10-16T10:01:52;2.97;;;0.80;;
75645;SDS011;64237;52.438;13.240;2022-10-16T10:04:20;3.17;;;1.00;;
75645;SDS011;64237;52.438;13.240;2022-10-16T10:06:57;3.75;;;1.17;;
75645;SDS011;64237;52.438;13.240;2022-10-16T10:09:26;3.95;;;1.02;;
75645;SDS011;64237;52.438;13.240;2022-10-16T10:11:57;2.47;;;0.90;;
75645;SDS011;64237;52.438;13.240;2022-10-16T10:17:02;2.28;;;0.85;;
75645;SDS011;64237;52.438;13.240;2022-10-16T10:22:23;2.45;;;0.90;;
75645;SDS011;64237;52.438;13.240;2022-10-16T10:38:47;2.70;;;0.68;;
75645;SDS011;64237;52.438;13.240;2022-10-16T10:44:17;0.70;;;0.70;;
75645;SDS011;64237;52.438;13.240;2022-10-16T10:46:50;1.92;;;0.60;;
75645;SDS011;64237;52.438;13.240;2022-10-16T10:54:32;2.13;;;0.80;;
75645;SDS011;64237;52.438;13.240;2022-10-16T11:02:47;1.23;;;0.70;;
75645;SDS011;64237;52.438;13.240;2022-10-16T11:10:23;2.58;;;0.70;;
75645;SDS011;64237;52.438;13.240;2022-10-16T11:12:58;1.17;;;0.77;;
75645;SDS011;64237;52.438;13.240;2022-10-16T11:15:46;1.88;;;0.60;;
75645;SDS011;64237;52.438;13.240;2022-10-16T11:18:16;1.27;;;0.70;;
75645;SDS011;64237;52.438;13.240;2022-10-16T11:20:56;1.70;;;0.57;;
75645;SDS011;64237;52.438;13.240;2022-10-16T11:23:26;2.47;;;0.57;;
75645;SDS011;64237;52.438;13.240;2022-10-16T11:25:56;0.60;;;0.40;;
75645;SDS011;64237;52.438;13.240;2022-10-16T11:30:59;6.43;;;1.00;;
75645;SDS011;64237;52.438;13.240;2022-10-16T11:41:36;2.10;;;0.60;;
75645;SDS011;64237;52.438;13.240;2022-10-16T11:46:46;0.57;;;0.57;;
75645;SDS011;64237;52.438;13.240;2022-10-16T11:49:21;1.05;;;0.60;;
75645;SDS011;64237;52.438;13.240;2022-10-16T11:52:02;0.93;;;0.68;;
75645;SDS011;64237;52.438;13.240;2022-10-16T11:54:59;0.85;;;0.50;;
75645;SDS011;64237;52.438;13.240;2022-10-16T11:57:35;3.50;;;0.70;;
75645;SDS011;64237;52.438;13.240;2022-10-16T12:00:15;0.82;;;0.70;;
75645;SDS011;64237;52.438;13.240;2022-10-16T12:05:14;4.95;;;1.15;;
75645;SDS011;64237;52.438;13.240;2022-10-16T12:07:53;3.60;;;0.98;;
75645;SDS011;64237;52.438;13.240;2022-10-16T12:10:34;2.85;;;1.05;;
75645;SDS011;64237;52.438;13.240;2022-10-16T12:13:48;2.97;;;0.90;;
75645;SDS011;64237;52.438;13.240;2022-10-16T12:21:01;4.23;;;0.90;;
75645;SDS011;64237;52.438;13.240;2022-10-16T12:23:53;2.17;;;0.70;;
75645;SDS011;64237;52.438;13.240;2022-10-16T12:26:33;4.55;;;0.80;;
75645;SDS011;64237;52.438;13.240;2022-10-16T12:29:12;1.73;;;0.70;;
75645;SDS011;64237;52.438;13.240;2022-10-16T12:31:43;0.95;;;0.50;;
75645;SDS011;64237;52.438;13.240;2022-10-16T12:34:20;2.38;;;0.70;;
75645;SDS011;64237;52.438;13.240;2022-10-16T12:36:48;1.58;;;0.70;;
75645;SDS011;64237;52.438;13.240;2022-10-16T12:39:21;1.23;;;0.70;;
75645;SDS011;64237;52.438;13.240;2022-10-16T12:41:48;1.55;;;0.57;;
75645;SDS011;64237;52.438;13.240;2022-10-16T12:44:25;0.50;;;0.50;;
75645;SDS011;64237;52.438;13.240;2022-10-16T12:46:57;1.52;;;0.50;;
75645;SDS011;64237;52.438;13.240;2022-10-16T12:49:36;0.68;;;0.50;;
75645;SDS011;64237;52.438;13.240;2022-10-16T12:52:22;1.00;;;0.40;;
75645;SDS011;64237;52.438;13.240;2022-10-16T12:55:20;1.00;;;0.68;;
75645;SDS011;64237;52.438;13.240;2022-10-16T12:58:09;2.22;;;0.57;;
75645;SDS011;64237;52.438;13.240;2022-10-16T13:00:45;0.77;;;0.47;;
75645;SDS011;64237;52.438;13.240;2022-10-16T13:06:01;0.55;;;0.35;;
75645;SDS011;64237;52.438;13.240;2022-10-16T13:14:24;0.90;;;0.82;;
75645;SDS011;64237;52.438;13.240;2022-10-16T13:17:10;1.77;;;0.60;;
75645;SDS011;64237;52.438;13.240;2022-10-16T13:30:27;0.88;;;0.45;;
75645;SDS011;64237;52.438;13.240;2022-10-16T13:33:02;0.80;;;0.70;;
75645;SDS011;64237;52.438;13.240;2022-10-16T13:35:31;0.60;;;0.47;;
75645;SDS011;64237;52.438;13.240;2022-10-16T13:40:30;0.50;;;0.50;;
75645;SDS011;64237;52.438;13.240;2022-10-16T13:42:55;2.22;;;0.50;;
75645;SDS011;64237;52.438;13.240;2022-10-16T13:45:24;0.70;;;0.43;;
75645;SDS011;64237;52.438;13.240;2022-10-16T13:48:00;1.95;;;0.82;;
75645;SDS011;64237;52.438;13.240;2022-10-16T13:50:27;8.27;;;2.35;;
75645;SDS011;64237;52.438;13.240;2022-10-16T13:53:02;22.27;;;7.85;;
75645;SDS011;64237;52.438;13.240;2022-10-16T13:55:30;15.75;;;5.22;;
75645;SDS011;64237;52.438;13.240;2022-10-16T13:58:04;11.27;;;3.05;;
75645;SDS011;64237;52.438;13.240;2022-10-16T14:00:33;7.88;;;2.17;;
75645;SDS011;64237;52.438;13.240;2022-10-16T14:03:01;12.00;;;4.57;;
75645;SDS011;64237;52.438;13.240;2022-10-16T14:05:29;21.23;;;11.88;;
75645;SDS011;64237;52.438;13.240;2022-10-16T14:07:55;13.02;;;7.97;;
75645;SDS011;64237;52.438;13.240;2022-10-16T14:10:23;7.45;;;3.20;;
75645;SDS011;64237;52.438;13.240;2022-10-16T14:12:59;3.25;;;1.80;;
75645;SDS011;64237;52.438;13.240;2022-10-16T14:15:27;3.15;;;1.60;;
75645;SDS011;64237;52.438;13.240;2022-10-16T14:17:54;2.05;;;1.00;;
75645;SDS011;64237;52.438;13.240;2022-10-16T14:20:20;1.65;;;0.80;;
75645;SDS011;64237;52.438;13.240;2022-10-16T14:22:57;0.82;;;0.52;;
75645;SDS011;64237;52.438;13.240;2022-10-16T14:25:28;5.60;;;1.40;;
75645;SDS011;64237;52.438;13.240;2022-10-16T14:28:00;1.58;;;0.50;;
75645;SDS011;64237;52.438;13.240;2022-10-16T14:30:28;1.73;;;0.60;;
75645;SDS011;64237;52.438;13.240;2022-10-16T14:32:55;1.25;;;0.70;;
75645;SDS011;64237;52.438;13.240;2022-10-16T14:37:56;3.80;;;1.03;;
75645;SDS011;64237;52.438;13.240;2022-10-16T14:40:25;3.15;;;1.23;;
75645;SDS011;64237;52.438;13.240;2022-10-16T14:42:52;2.60;;;1.30;;
75645;SDS011;64237;52.438;13.240;2022-10-16T14:45:19;1.15;;;0.70;;
75645;SDS011;64237;52.438;13.240;2022-10-16T14:47:51;3.40;;;1.50;;
75645;SDS011;64237;52.438;13.240;2022-10-16T14:50:19;3.58;;;1.75;;
75645;SDS011;64237;52.438;13.240;2022-10-16T14:52:45;2.10;;;0.90;;
75645;SDS011;64237;52.438;13.240;2022-10-16T14:55:10;1.05;;;0.80;;
75645;SDS011;64237;52.438;13.240;2022-10-16T14:57:36;2.83;;;0.93;;
75645;SDS011;64237;52.438;13.240;2022-10-16T15:00:06;0.82;;;0.70;;
75645;SDS011;64237;52.438;13.240;2022-10-16T15:02:38;2.42;;;0.75;;
75645;SDS011;64237;52.438;13.240;2022-10-16T15:05:11;2.15;;;1.08;;
75645;SDS011;64237;52.438;13.240;2022-10-16T15:07:43;10.88;;;6.22;;
75645;SDS011;64237;52.438;13.240;2022-10-16T15:10:09;6.55;;;4.20;;
75645;SDS011;64237;52.438;13.240;2022-10-16T15:12:35;3.65;;;1.90;;
75645;SDS011;64237;52.438;13.240;2022-10-16T15:15:01;3.45;;;1.60;;
75645;SDS011;64237;52.438;13.240;2022-10-16T15:17:27;3.10;;;1.40;;
75645;SDS011;64237;52.438;13.240;2022-10-16T15:19:52;1.90;;;1.20;;
75645;SDS011;64237;52.438;13.240;2022-10-16T15:22:17;2.43;;;1.10;;
75645;SDS011;64237;52.438;13.240;2022-10-16T15:24:43;1.83;;;0.70;;
75645;SDS011;64237;52.438;13.240;2022-10-16T15:27:08;1.27;;;0.75;;
75645;SDS011;64237;52.438;13.240;2022-10-16T15:29:34;1.58;;;0.77;;
75645;SDS011;64237;52.438;13.240;2022-10-16T15:31:59;1.40;;;1.00;;
75645;SDS011;64237;52.438;13.240;2022-10-16T15:34:24;1.80;;;1.00;;
75645;SDS011;64237;52.438;13.240;2022-10-16T15:36:50;1.85;;;1.00;;
75645;SDS011;64237;52.438;13.240;2022-10-16T15:39:16;3.80;;;1.17;;
75645;SDS011;64237;52.438;13.240;2022-10-16T15:41:45;1.13;;;0.90;;
75645;SDS011;64237;52.438;13.240;2022-10-16T15:44:19;1.63;;;0.90;;
75645;SDS011;64237;52.438;13.240;2022-10-16T15:46:47;1.98;;;0.80;;
75645;SDS011;64237;52.438;13.240;2022-10-16T15:49:13;3.75;;;0.98;;
75645;SDS011;64237;52.438;13.240;2022-10-16T15:51:39;2.83;;;0.98;;
75645;SDS011;64237;52.438;13.240;2022-10-16T15:54:05;1.70;;;0.80;;
75645;SDS011;64237;52.438;13.240;2022-10-16T15:56:31;1.02;;;0.80;;
75645;SDS011;64237;52.438;13.240;2022-10-16T15:58:58;2.42;;;0.82;;
75645;SDS011;64237;52.438;13.240;2022-10-16T16:01:24;1.67;;;0.80;;
75645;SDS011;64237;52.438;13.240;2022-10-16T16:03:53;3.72;;;0.80;;
75645;SDS011;64237;52.438;13.240;2022-10-16T16:06:20;1.85;;;0.82;;
75645;SDS011;64237;52.438;13.240;2022-10-16T16:08:46;2.03;;;0.80;;
75645;SDS011;64237;52.438;13.240;2022-10-16T16:11:15;3.33;;;0.98;;
75645;SDS011;64237;52.438;13.240;2022-10-16T16:13:42;2.60;;;1.10;;
75645;SDS011;64237;52.438;13.240;2022-10-16T16:16:08;4.07;;;1.20;;
75645;SDS011;64237;52.438;13.240;2022-10-16T16:18:35;1.67;;;0.80;;
75645;SDS011;64237;52.438;13.240;2022-10-16T16:21:02;2.47;;;1.20;;
75645;SDS011;64237;52.438;13.240;2022-10-16T16:23:34;16.98;;;1.88;;
75645;SDS011;64237;52.438;13.240;2022-10-16T16:26:03;2.78;;;1.20;;
75645;SDS011;64237;52.438;13.240;2022-10-16T16:28:36;3.42;;;1.20;;
75645;SDS011;64237;52.438;13.240;2022-10-16T16:31:03;2.67;;;1.02;;
75645;SDS011;64237;52.438;13.240;2022-10-16T16:33:29;6.57;;;2.97;;
75645;SDS011;64237;52.438;13.240;2022-10-16T16:35:59;10.98;;;6.70;;
75645;SDS011;64237;52.438;13.240;2022-10-16T16:38:26;18.77;;;12.02;;
75645;SDS011;64237;52.438;13.240;2022-10-16T16:40:52;7.93;;;4.07;;
75645;SDS011;64237;52.438;13.240;2022-10-16T16:43:18;4.05;;;1.52;;
75645;SDS011;64237;52.438;13.240;2022-10-16T16:45:44;6.43;;;1.92;;
75645;SDS011;64237;52.438;13.240;2022-10-16T16:48:09;2.85;;;1.30;;
75645;SDS011;64237;52.438;13.240;2022-10-16T16:50:35;5.20;;;2.25;;
75645;SDS011;64237;52.438;13.240;2022-10-16T16:53:01;8.20;;;3.10;;
75645;SDS011;64237;52.438;13.240;2022-10-16T16:55:27;7.80;;;3.80;;
75645;SDS011;64237;52.438;13.240;2022-10-16T16:57:52;7.78;;;4.03;;